createdAt,value
2023-04-24T00:01:35.113Z,9.37
2023-04-24T00:06:37.686Z,9.48
2023-04-24T00:11:41.181Z,9.50
2023-04-24T00:16:42.977Z,9.55
2023-04-24T00:21:45.126Z,9.58
2023-04-24T00:26:48.430Z,9.60
2023-04-24T00:31:50.209Z,9.82
2023-04-24T00:36:51.912Z,9.85
2023-04-24T00:41:55.061Z,9.82
2023-04-24T00:46:57.683Z,9.87
2023-04-24T00:51:59.507Z,9.98
2023-04-24T00:57:03.758Z,10.12
2023-04-24T01:02:05.501Z,10.18
2023-04-24T01:07:07.553Z,10.22
2023-04-24T01:12:10.694Z,10.22
2023-04-24T01:17:12.452Z,10.17
2023-04-24T01:22:17.193Z,10.15
2023-04-24T01:27:19.182Z,10.12
2023-04-24T01:32:21.032Z,10.14
2023-04-24T01:37:24.126Z,10.14
2023-04-24T01:42:26.408Z,10.07
2023-04-24T01:47:28.728Z,10.03
2023-04-24T01:52:31.825Z,9.93
2023-04-24T01:57:34.753Z,9.88
2023-04-24T02:02:36.707Z,9.78
2023-04-24T02:07:40.363Z,9.76
2023-04-24T02:12:43.121Z,9.65
2023-04-24T02:17:44.844Z,9.60
2023-04-24T02:22:48.363Z,9.57
2023-04-24T02:27:50.105Z,9.57
2023-04-24T02:32:51.888Z,9.59
2023-04-24T02:37:54.953Z,9.77
2023-04-24T02:42:56.787Z,10.02
2023-04-24T02:47:58.613Z,10.16
2023-04-24T02:53:01.764Z,10.17
2023-04-24T02:58:03.684Z,10.25
2023-04-24T03:03:06.293Z,10.37
2023-04-24T03:08:10.132Z,10.43
2023-04-24T03:13:11.966Z,10.42
2023-04-24T03:18:13.679Z,10.43
2023-04-24T03:23:17.221Z,10.47
2023-04-24T03:28:19.345Z,10.48
2023-04-24T03:33:21.495Z,10.49
2023-04-24T03:38:24.974Z,10.58
2023-04-24T03:43:26.889Z,10.70
2023-04-24T03:48:28.992Z,10.79
2023-04-24T03:53:32.477Z,10.76
2023-04-24T03:58:34.389Z,10.72
2023-04-24T04:03:36.409Z,10.59
2023-04-24T04:08:39.646Z,10.59
2023-04-24T04:13:41.895Z,10.56
2023-04-24T04:18:43.856Z,10.57
2023-04-24T04:23:47.384Z,10.57
2023-04-24T04:28:49.105Z,10.63
2023-04-24T04:33:51.287Z,10.70
2023-04-24T04:38:54.747Z,10.80
2023-04-24T04:43:57.153Z,10.87
2023-04-24T04:48:59.093Z,11.02
2023-04-24T04:54:02.925Z,11.13
2023-04-24T04:59:05.240Z,11.18
2023-04-24T05:04:07.703Z,11.24
2023-04-24T05:09:11.116Z,11.35
2023-04-24T05:14:13.282Z,11.75
2023-04-24T05:19:15.678Z,12.25
2023-04-24T05:24:19.387Z,12.60
2023-04-24T05:29:21.606Z,13.32
2023-04-24T05:34:23.709Z,12.99
2023-04-24T05:39:26.843Z,12.68
2023-04-24T05:44:28.846Z,12.95
2023-04-24T05:49:30.696Z,13.80
2023-04-24T05:54:33.969Z,13.79
2023-04-24T05:59:38.645Z,13.95
2023-04-24T06:04:41.172Z,13.87
2023-04-24T06:09:44.729Z,15.09
2023-04-24T06:14:46.832Z,14.58
2023-04-24T06:19:48.951Z,14.49
2023-04-24T06:24:52.446Z,14.79
2023-04-24T06:29:54.601Z,14.22
2023-04-24T06:34:57.966Z,14.11
2023-04-24T06:40:02.608Z,14.29
2023-04-24T06:45:05.069Z,14.11
2023-04-24T06:50:07.723Z,13.97
2023-04-24T06:55:11.413Z,13.86
2023-04-24T07:00:14.866Z,13.87
2023-04-24T07:05:17.012Z,14.09
2023-04-24T07:10:20.250Z,14.57
2023-04-24T07:15:22.501Z,14.57
2023-04-24T07:20:24.783Z,14.69
2023-04-24T07:25:27.929Z,15.08
2023-04-24T07:30:29.602Z,15.00
2023-04-24T07:35:31.359Z,15.15
2023-04-24T07:40:34.801Z,15.37
2023-04-24T07:45:36.990Z,15.67
2023-04-24T07:50:39.074Z,16.28
2023-04-24T07:55:42.497Z,16.74
2023-04-24T08:00:44.448Z,16.63
2023-04-24T08:05:46.456Z,16.75
2023-04-24T08:10:50.117Z,16.59
2023-04-24T08:15:52.283Z,16.25
2023-04-24T08:20:54.244Z,16.15
2023-04-24T08:25:57.625Z,16.30
2023-04-24T08:30:59.679Z,16.44
2023-04-24T08:36:02.018Z,16.61
2023-04-24T08:41:06.182Z,16.77
2023-04-24T08:46:11.907Z,16.62
2023-04-24T08:51:14.363Z,16.69
2023-04-24T08:56:17.628Z,16.55
2023-04-24T09:01:21.519Z,16.77
2023-04-24T09:06:24.694Z,17.52
2023-04-24T09:11:28.473Z,17.16
2023-04-24T09:16:30.925Z,17.30
2023-04-24T09:21:34.034Z,17.71
2023-04-24T09:26:37.861Z,17.58
2023-04-24T09:31:40.076Z,17.83
2023-04-24T09:36:43.987Z,17.97
2023-04-24T09:41:48.140Z,18.43
2023-04-24T09:46:52.304Z,18.13
2023-04-24T09:52:04.340Z,18.04
2023-04-24T09:57:09.173Z,19.45
2023-04-24T10:02:19.092Z,21.60
2023-04-24T10:07:21.421Z,17.94
2023-04-24T10:12:26.215Z,16.81
2023-04-24T10:17:29.769Z,16.58
2023-04-24T10:22:32.453Z,16.22
2023-04-24T10:27:37.089Z,15.98
2023-04-24T10:32:39.177Z,17.58
2023-04-24T10:37:45.030Z,22.31
2023-04-24T10:42:52.952Z,19.13
2023-04-24T10:47:59.255Z,18.04
2023-04-24T10:53:08.083Z,17.14
2023-04-24T10:58:12.089Z,16.83
2023-04-24T11:03:29.282Z,17.94
2023-04-24T11:08:34.452Z,18.79
2023-04-24T11:14:11.808Z,17.39
2023-04-24T11:19:23.602Z,17.42
2023-04-24T11:24:31.025Z,17.12
2023-04-24T11:29:45.352Z,17.22
2023-04-24T11:34:49.174Z,18.33
2023-04-24T11:39:55.405Z,19.29
2023-04-24T11:44:59.144Z,19.40
2023-04-24T11:50:02.512Z,19.43
2023-04-24T11:55:05.814Z,20.17
2023-04-24T12:00:16.547Z,20.03
2023-04-24T12:05:23.247Z,19.01
2023-04-24T12:10:27.843Z,19.73
2023-04-24T12:15:31.184Z,19.12
2023-04-24T12:20:34.141Z,18.52
2023-04-24T12:25:36.389Z,18.79
2023-04-24T12:30:43.347Z,19.29
2023-04-24T12:35:45.675Z,19.17
2023-04-24T12:40:47.799Z,18.42
2023-04-24T12:45:51.337Z,18.90
2023-04-24T12:50:53.345Z,19.52
2023-04-24T12:55:55.496Z,18.60
2023-04-24T13:00:58.879Z,18.24
2023-04-24T13:06:01.150Z,18.76
2023-04-24T13:11:03.526Z,18.53
2023-04-24T13:16:07.535Z,18.68
2023-04-24T13:21:09.950Z,18.96
2023-04-24T13:26:12.176Z,18.03
2023-04-24T13:31:15.794Z,17.54
2023-04-24T13:36:18.110Z,17.92
2023-04-24T13:41:20.234Z,19.27
2023-04-24T13:46:23.522Z,19.61
2023-04-24T13:51:27.155Z,18.71
2023-04-24T13:56:29.018Z,18.22
2023-04-24T14:01:32.559Z,18.98
2023-04-24T14:06:35.081Z,18.03
2023-04-24T14:11:36.957Z,18.82
2023-04-24T14:16:40.653Z,18.83
2023-04-24T14:21:42.908Z,18.92
2023-04-24T14:26:45.094Z,18.36
2023-04-24T14:31:48.466Z,17.94
2023-04-24T14:36:50.817Z,17.77
2023-04-24T14:41:53.048Z,17.60
2023-04-24T14:46:56.202Z,18.32
2023-04-24T14:51:57.928Z,17.55
2023-04-24T14:56:59.725Z,16.89
2023-04-24T15:02:15.426Z,16.56
2023-04-24T15:07:19.761Z,16.47
2023-04-24T15:12:22.645Z,16.38
2023-04-24T15:17:26.172Z,16.29
2023-04-24T15:22:28.193Z,16.25
2023-04-24T15:27:40.699Z,16.41
2023-04-24T15:32:44.245Z,16.72
2023-04-24T15:37:46.583Z,16.63
2023-04-24T15:42:48.690Z,16.47
2023-04-24T15:47:52.325Z,16.57
2023-04-24T15:52:54.581Z,16.37
2023-04-24T15:57:56.721Z,16.19
2023-04-24T16:03:00.625Z,16.03
2023-04-24T16:08:03.317Z,15.62
2023-04-24T16:13:05.537Z,15.34
2023-04-24T16:18:08.718Z,15.01
2023-04-24T16:23:10.915Z,14.90
2023-04-24T16:28:13.053Z,14.05
2023-04-24T16:33:16.597Z,13.63
2023-04-24T16:38:18.715Z,13.59
2023-04-24T16:43:20.882Z,13.45
2023-04-24T16:48:24.251Z,13.32
2023-04-24T16:53:26.549Z,13.29
2023-04-24T16:58:28.660Z,13.19
2023-04-24T17:03:31.922Z,13.01
2023-04-24T17:08:34.474Z,13.07
2023-04-24T17:13:36.683Z,13.13
2023-04-24T17:18:40.479Z,13.19
2023-04-24T17:23:42.629Z,12.78
2023-04-24T17:28:44.802Z,12.71
2023-04-24T17:33:49.026Z,12.51
2023-04-24T17:38:51.182Z,12.41
2023-04-24T17:43:53.065Z,12.26
2023-04-24T17:48:56.665Z,12.20
2023-04-24T17:53:58.801Z,12.09
2023-04-24T17:59:00.561Z,11.86
2023-04-24T18:04:04.327Z,11.73
2023-04-24T18:09:07.263Z,11.51
2023-04-24T18:14:09.393Z,11.28
2023-04-24T18:19:12.860Z,11.18
2023-04-24T18:24:15.243Z,11.07
2023-04-24T18:29:16.981Z,10.86
2023-04-24T18:34:20.468Z,10.73
2023-04-24T18:39:23.160Z,10.58
2023-04-24T18:44:25.409Z,10.42
2023-04-24T18:49:28.860Z,10.30
2023-04-24T18:54:31.184Z,10.26
2023-04-24T18:59:33.302Z,10.24
2023-04-24T19:04:36.559Z,10.23
2023-04-24T19:09:39.299Z,10.31
2023-04-24T19:14:41.679Z,10.22
2023-04-24T19:19:44.778Z,10.20
2023-04-24T19:24:47.258Z,10.12
2023-04-24T19:29:49.386Z,9.97
2023-04-24T19:34:52.515Z,9.88
2023-04-24T19:39:54.834Z,9.82
2023-04-24T19:44:56.989Z,9.69
2023-04-24T19:50:00.516Z,9.56
2023-04-24T19:55:02.971Z,9.53
2023-04-24T20:00:05.888Z,9.39
2023-04-24T20:05:10.085Z,9.30
2023-04-24T20:10:12.163Z,9.23
2023-04-24T20:15:14.325Z,9.15
2023-04-24T20:20:17.487Z,9.04
2023-04-24T20:25:19.683Z,8.98
2023-04-24T20:30:21.998Z,8.93
2023-04-24T20:35:25.622Z,9.02
2023-04-24T20:40:28.728Z,9.07
2023-04-24T20:45:31.470Z,9.07
2023-04-24T20:50:35.144Z,9.05
2023-04-24T20:55:37.105Z,9.04
2023-04-24T21:00:39.901Z,8.91
2023-04-24T21:05:43.872Z,8.74
2023-04-24T21:10:46.829Z,8.75
2023-04-24T21:15:49.326Z,8.82
2023-04-24T21:20:53.064Z,8.80
2023-04-24T21:25:55.827Z,8.69
2023-04-24T21:30:58.202Z,8.62
2023-04-24T21:36:01.975Z,8.67
2023-04-24T21:41:04.084Z,8.72
2023-04-24T21:46:06.320Z,8.65
2023-04-24T21:51:09.836Z,8.58
2023-04-24T21:56:12.647Z,8.49
2023-04-24T22:01:14.728Z,8.42
2023-04-24T22:06:18.012Z,8.36
2023-04-24T22:11:26.671Z,8.31
2023-04-24T22:16:31.180Z,8.32
2023-04-24T22:21:35.036Z,8.28
2023-04-24T22:26:36.952Z,8.20
2023-04-24T22:31:39.142Z,8.21
2023-04-24T22:36:42.979Z,8.33
2023-04-24T22:41:44.877Z,8.32
2023-04-24T22:46:46.842Z,8.34
2023-04-24T22:51:49.945Z,8.44
2023-04-24T22:56:52.158Z,8.50
2023-04-24T23:01:54.078Z,8.53
2023-04-24T23:06:57.615Z,8.65
2023-04-24T23:12:00.026Z,8.70
2023-04-24T23:17:02.596Z,8.79
2023-04-24T23:22:06.112Z,8.85
2023-04-24T23:27:07.974Z,8.84
2023-04-24T23:32:10.022Z,8.87
2023-04-24T23:37:13.530Z,8.82
2023-04-24T23:42:15.294Z,8.89
2023-04-24T23:47:17.255Z,8.94
2023-04-24T23:52:20.971Z,8.91
2023-04-24T23:57:23.101Z,8.81
